createdAt,value
2022-10-23T00:00:27.934Z,45.58
2022-10-23T00:03:30.475Z,39.37
2022-10-23T00:06:34.512Z,39.65
2022-10-23T00:09:37.117Z,43.08
2022-10-23T00:12:39.508Z,41.72
2022-10-23T00:15:42.229Z,40.80
2022-10-23T00:18:45.747Z,40.07
2022-10-23T00:21:48.362Z,41.03
2022-10-23T00:24:50.751Z,40.60
2022-10-23T00:27:53.411Z,38.80
2022-10-23T00:30:55.947Z,37.72
2022-10-23T00:33:58.652Z,40.17
2022-10-23T00:37:01.768Z,38.80
2022-10-23T00:40:05.230Z,43.03
2022-10-23T00:43:13.931Z,43.13
2022-10-23T00:46:16.529Z,42.45
2022-10-23T00:49:20.221Z,37.67
2022-10-23T00:52:22.774Z,43.60
2022-10-23T00:55:26.648Z,43.60
2022-10-23T00:58:29.499Z,38.85
2022-10-23T01:01:32.286Z,39.63
2022-10-23T01:04:35.738Z,38.70
2022-10-23T01:07:56.327Z,42.40
2022-10-23T01:11:10.178Z,42.42
2022-10-23T01:14:37.687Z,39.92
2022-10-23T01:18:00.741Z,41.78
2022-10-23T01:21:14.237Z,40.63
2022-10-23T01:24:47.089Z,41.28
2022-10-23T01:27:56.246Z,42.62
2022-10-23T01:31:02.370Z,39.60
2022-10-23T01:34:32.934Z,40.72
2022-10-23T01:37:49.804Z,36.27
2022-10-23T01:41:07.656Z,41.25
2022-10-23T01:44:18.791Z,35.58
2022-10-23T01:47:27.249Z,37.72
2022-10-23T01:50:31.511Z,39.72
2022-10-23T01:53:41.283Z,37.77
2022-10-23T01:56:48.198Z,41.63
2022-10-23T01:59:55.235Z,34.40
2022-10-23T02:02:58.889Z,36.60
2022-10-23T02:06:01.972Z,38.08
2022-10-23T02:09:06.748Z,36.93
2022-10-23T02:15:47.985Z,39.42
2022-10-23T02:18:57.160Z,36.55
2022-10-23T02:22:15.082Z,38.65
2022-10-23T02:25:24.630Z,40.87
2022-10-23T02:28:34.800Z,39.15
2022-10-23T02:31:37.787Z,40.85
2022-10-23T02:34:40.060Z,38.03
2022-10-23T02:37:53.056Z,38.00
2022-10-23T02:41:19.719Z,39.87
2022-10-23T02:45:07.261Z,37.22
2022-10-23T02:48:20.154Z,36.25
2022-10-23T02:51:41.939Z,40.97
2022-10-23T02:54:56.505Z,37.85
2022-10-23T02:58:12.602Z,37.40
2022-10-23T03:01:20.697Z,37.90
2022-10-23T03:04:26.236Z,36.97
2022-10-23T03:07:28.768Z,39.33
2022-10-23T03:10:37.031Z,38.00
2022-10-23T03:13:41.148Z,36.23
2022-10-23T03:16:43.711Z,37.55
2022-10-23T03:19:45.959Z,35.78
2022-10-23T03:22:49.657Z,36.83
2022-10-23T03:25:52.955Z,35.97
2022-10-23T03:28:59.986Z,37.90
2022-10-23T03:32:02.419Z,35.80
2022-10-23T03:35:05.397Z,39.22
2022-10-23T03:38:08.204Z,36.17
2022-10-23T03:41:10.962Z,32.83
2022-10-23T03:44:13.312Z,33.67
2022-10-23T03:47:19.423Z,36.10
2022-10-23T03:50:21.721Z,38.42
2022-10-23T03:53:24.267Z,33.78
2022-10-23T03:56:26.563Z,33.08
2022-10-23T03:59:29.766Z,32.03
2022-10-23T04:02:33.781Z,32.97
2022-10-23T04:05:36.323Z,35.25
2022-10-23T04:08:38.734Z,37.10
2022-10-23T04:11:43.611Z,33.67
2022-10-23T04:14:45.982Z,34.23
2022-10-23T04:17:48.575Z,34.58
2022-10-23T04:20:51.541Z,37.28
2022-10-23T04:23:54.158Z,33.03
2022-10-23T04:26:57.631Z,31.98
2022-10-23T04:30:03.779Z,35.00
2022-10-23T04:33:06.058Z,37.08
2022-10-23T04:36:09.961Z,36.88
2022-10-23T04:39:12.880Z,33.88
2022-10-23T04:42:15.551Z,37.42
2022-10-23T04:45:17.852Z,37.47
2022-10-23T04:48:21.741Z,36.85
2022-10-23T04:51:28.050Z,34.88
2022-10-23T04:54:38.779Z,34.33
2022-10-23T04:57:41.174Z,37.53
2022-10-23T05:00:44.945Z,36.30
2022-10-23T05:03:51.299Z,38.13
2022-10-23T05:06:54.154Z,35.00
2022-10-23T05:09:56.800Z,36.83
2022-10-23T05:12:59.875Z,37.55
2022-10-23T05:16:02.086Z,34.10
2022-10-23T05:19:07.922Z,32.67
2022-10-23T05:22:11.371Z,36.20
2022-10-23T05:25:17.966Z,34.65
2022-10-23T05:28:20.451Z,36.53
2022-10-23T05:31:25.003Z,33.03
2022-10-23T05:34:33.305Z,32.97
2022-10-23T05:37:39.907Z,31.48
2022-10-23T05:40:42.467Z,32.95
2022-10-23T05:43:49.116Z,30.35
2022-10-23T05:46:52.375Z,30.07
2022-10-23T05:49:54.984Z,29.60
2022-10-23T05:52:57.619Z,28.65
2022-10-23T05:56:05.808Z,28.83
2022-10-23T05:59:10.382Z,29.75
2022-10-23T06:02:14.726Z,30.60
2022-10-23T06:05:17.720Z,30.60
2022-10-23T06:08:20.528Z,29.15
2022-10-23T06:11:23.708Z,29.73
2022-10-23T06:14:27.063Z,29.65
2022-10-23T06:17:29.970Z,29.00
2022-10-23T06:20:35.563Z,29.12
2022-10-23T06:23:40.069Z,28.15
2022-10-23T06:26:43.043Z,28.87
2022-10-23T06:29:45.640Z,30.60
2022-10-23T06:32:48.051Z,30.77
2022-10-23T06:35:50.916Z,33.15
2022-10-23T06:38:53.383Z,29.35
2022-10-23T06:41:56.651Z,28.35
2022-10-23T06:45:08.805Z,30.25
2022-10-23T06:48:13.969Z,33.07
2022-10-23T06:51:18.189Z,33.25
2022-10-23T06:54:20.805Z,33.00
2022-10-23T06:57:26.679Z,33.08
2022-10-23T07:00:29.363Z,30.62
2022-10-23T07:03:32.707Z,30.57
2022-10-23T07:06:37.047Z,33.60
2022-10-23T07:09:39.849Z,31.23
2022-10-23T07:12:47.676Z,29.75
2022-10-23T07:15:54.502Z,33.53
2022-10-23T07:18:59.724Z,28.40
2022-10-23T07:22:06.000Z,30.77
2022-10-23T07:25:09.251Z,28.52
2022-10-23T07:28:11.640Z,30.58
2022-10-23T07:31:14.616Z,28.17
2022-10-23T07:34:17.936Z,27.70
2022-10-23T07:37:21.053Z,28.15
2022-10-23T07:40:23.469Z,27.40
2022-10-23T07:43:27.184Z,24.70
2022-10-23T07:46:29.487Z,24.83
2022-10-23T07:49:32.057Z,27.60
2022-10-23T07:52:36.211Z,28.23
2022-10-23T07:55:40.575Z,26.52
2022-10-23T07:58:44.135Z,23.65
2022-10-23T08:01:50.487Z,24.73
2022-10-23T08:04:55.737Z,23.60
2022-10-23T08:07:58.664Z,24.63
2022-10-23T08:11:01.180Z,25.35
2022-10-23T08:14:05.877Z,23.98
2022-10-23T08:17:09.978Z,24.70
2022-10-23T08:20:18.347Z,24.03
2022-10-23T08:23:21.348Z,23.35
2022-10-23T08:26:25.035Z,23.52
2022-10-23T08:29:28.094Z,20.65
2022-10-23T08:32:30.883Z,21.20
2022-10-23T08:35:39.534Z,21.60
2022-10-23T08:38:41.954Z,20.52
2022-10-23T08:41:51.544Z,22.55
2022-10-23T08:45:07.913Z,22.58
2022-10-23T08:48:21.304Z,22.50
2022-10-23T08:51:40.508Z,21.00
2022-10-23T08:55:07.549Z,20.20
2022-10-23T08:58:29.639Z,19.45
2022-10-23T09:01:38.438Z,16.52
2022-10-23T09:04:43.594Z,17.25
2022-10-23T09:08:18.161Z,18.67
2022-10-23T09:11:32.656Z,15.48
2022-10-23T09:15:04.114Z,17.87
2022-10-23T09:18:16.570Z,17.70
2022-10-23T09:21:19.165Z,24.08
2022-10-23T09:24:23.786Z,16.17
2022-10-23T09:27:26.357Z,16.37
2022-10-23T09:30:38.354Z,16.52
2022-10-23T09:33:41.824Z,15.13
2022-10-23T09:36:51.055Z,16.50
2022-10-23T09:40:19.596Z,18.00
2022-10-23T09:43:24.123Z,20.70
2022-10-23T09:49:55.861Z,16.45
2022-10-23T09:52:58.664Z,19.20
2022-10-23T09:56:04.856Z,17.70
2022-10-23T09:59:13.156Z,18.80
2022-10-23T10:02:29.101Z,20.65
2022-10-23T10:05:36.462Z,20.12
2022-10-23T10:08:53.143Z,22.30
2022-10-23T10:12:03.229Z,17.37
2022-10-23T10:15:18.643Z,17.27
2022-10-23T10:18:47.186Z,15.93
2022-10-23T10:22:11.025Z,17.20
2022-10-23T10:25:49.763Z,20.75
2022-10-23T10:29:05.272Z,15.83
2022-10-23T10:32:21.646Z,15.93
2022-10-23T10:35:48.183Z,17.37
2022-10-23T10:38:54.709Z,19.35
2022-10-23T10:42:24.295Z,21.52
2022-10-23T10:45:33.363Z,23.20
2022-10-23T10:48:41.394Z,24.40
2022-10-23T10:52:06.791Z,24.85
2022-10-23T10:55:49.207Z,28.52
2022-10-23T10:59:28.890Z,27.75
2022-10-23T11:02:44.040Z,31.27
2022-10-23T11:05:51.615Z,32.22
2022-10-23T11:09:15.584Z,32.13
2022-10-23T11:12:20.530Z,36.15
2022-10-23T11:15:29.032Z,32.78
2022-10-23T11:18:33.728Z,34.27
2022-10-23T11:22:06.767Z,31.70
2022-10-23T11:25:47.263Z,35.33
2022-10-23T11:29:02.154Z,35.65
2022-10-23T11:32:10.361Z,37.33
2022-10-23T11:35:24.341Z,31.03
2022-10-23T11:38:32.067Z,32.03
2022-10-23T11:41:34.750Z,29.45
2022-10-23T11:44:44.237Z,24.70
2022-10-23T11:47:58.647Z,30.77
2022-10-23T11:51:05.233Z,24.23
2022-10-23T11:54:16.731Z,23.33
2022-10-23T11:57:19.371Z,21.75
2022-10-23T12:00:22.538Z,20.52
2022-10-23T12:03:40.657Z,23.80
2022-10-23T12:06:49.735Z,21.03
2022-10-23T12:10:05.756Z,21.70
2022-10-23T12:13:37.297Z,19.65
2022-10-23T12:16:39.828Z,21.80
2022-10-23T12:19:48.403Z,20.40
2022-10-23T12:22:58.877Z,19.57
2022-10-23T12:26:19.918Z,22.80
2022-10-23T12:29:48.667Z,23.75
2022-10-23T12:33:12.181Z,24.00
2022-10-23T12:36:37.730Z,23.55
2022-10-23T12:39:40.776Z,24.27
2022-10-23T12:42:52.696Z,25.88
2022-10-23T12:45:57.273Z,23.33
2022-10-23T12:49:01.770Z,20.60
2022-10-23T12:52:06.718Z,19.08
2022-10-23T12:55:14.090Z,19.07
2022-10-23T12:58:25.503Z,20.48
2022-10-23T13:01:33.858Z,18.83
2022-10-23T13:04:36.969Z,16.75
2022-10-23T13:07:45.273Z,16.48
2022-10-23T13:10:49.172Z,18.57
2022-10-23T13:13:53.464Z,17.17
2022-10-23T13:17:00.593Z,15.82
2022-10-23T13:20:31.376Z,17.12
2022-10-23T13:23:35.466Z,16.10
2022-10-23T13:26:45.268Z,17.13
2022-10-23T13:29:47.718Z,19.67
2022-10-23T13:32:50.219Z,16.60
2022-10-23T13:36:20.435Z,18.17
2022-10-23T13:39:34.194Z,16.83
2022-10-23T13:42:36.531Z,17.27
2022-10-23T13:45:41.340Z,17.10
2022-10-23T13:48:43.912Z,16.17
2022-10-23T13:51:53.731Z,15.57
2022-10-23T13:54:56.019Z,14.43
2022-10-23T13:57:58.521Z,14.60
2022-10-23T14:01:01.058Z,17.37
2022-10-23T14:04:05.504Z,17.10
2022-10-23T14:07:07.720Z,14.70
2022-10-23T14:10:10.272Z,16.75
2022-10-23T14:13:12.512Z,18.03
2022-10-23T14:16:17.686Z,22.35
2022-10-23T14:19:19.971Z,19.33
2022-10-23T14:22:22.555Z,19.33
2022-10-23T14:25:24.856Z,16.98
2022-10-23T14:28:27.527Z,16.30
2022-10-23T14:31:29.853Z,18.92
2022-10-23T14:34:32.433Z,17.02
2022-10-23T14:37:35.100Z,18.98
2022-10-23T14:40:38.830Z,16.70
2022-10-23T14:43:42.970Z,17.53
2022-10-23T14:46:45.470Z,18.83
2022-10-23T14:49:52.091Z,17.42
2022-10-23T14:52:54.667Z,19.05
2022-10-23T14:56:04.683Z,16.00
2022-10-23T14:59:08.039Z,18.60
2022-10-23T15:02:11.835Z,18.48
2022-10-23T15:05:14.696Z,17.65
2022-10-23T15:08:16.950Z,16.87
2022-10-23T15:11:19.473Z,18.12
2022-10-23T15:14:21.766Z,16.80
2022-10-23T15:17:24.331Z,22.95
2022-10-23T15:20:26.689Z,21.48
2022-10-23T15:23:29.162Z,18.62
2022-10-23T15:26:31.837Z,18.60
2022-10-23T15:29:34.360Z,20.13
2022-10-23T15:32:36.870Z,16.98
2022-10-23T15:35:39.410Z,19.58
2022-10-23T15:38:42.026Z,19.20
2022-10-23T15:41:45.063Z,22.87
2022-10-23T15:44:47.361Z,20.35
2022-10-23T15:47:52.708Z,20.05
2022-10-23T15:50:55.640Z,18.60
2022-10-23T15:53:58.246Z,20.42
2022-10-23T15:57:01.420Z,22.63
2022-10-23T16:00:05.984Z,20.35
2022-10-23T16:03:10.903Z,25.80
2022-10-23T16:06:15.855Z,20.73
2022-10-23T16:09:18.143Z,20.25
2022-10-23T16:12:20.780Z,22.43
2022-10-23T16:15:23.106Z,21.90
2022-10-23T16:18:25.734Z,19.15
2022-10-23T16:21:31.405Z,19.08
2022-10-23T16:24:34.255Z,18.25
2022-10-23T16:27:36.544Z,20.23
2022-10-23T16:30:43.567Z,17.58
2022-10-23T16:33:46.570Z,18.62
2022-10-23T16:36:49.652Z,16.15
2022-10-23T16:39:52.543Z,22.25
2022-10-23T16:42:59.382Z,13.60
2022-10-23T16:46:02.268Z,16.77
2022-10-23T16:49:06.089Z,11.88
2022-10-23T16:52:08.602Z,10.27
2022-10-23T16:55:11.192Z,12.18
2022-10-23T16:58:13.452Z,11.43
2022-10-23T17:01:19.539Z,11.55
2022-10-23T17:04:21.883Z,8.73
2022-10-23T17:07:24.528Z,7.47
2022-10-23T17:10:27.133Z,8.23
2022-10-23T17:13:29.805Z,9.43
2022-10-23T17:16:45.654Z,7.75
2022-10-23T17:19:48.265Z,10.68
2022-10-23T17:22:50.495Z,7.97
2022-10-23T17:25:53.494Z,7.22
2022-10-23T17:29:00.516Z,8.10
2022-10-23T17:32:03.249Z,7.80
2022-10-23T17:35:08.113Z,7.70
2022-10-23T17:38:11.855Z,8.18
2022-10-23T17:41:16.514Z,8.45
2022-10-23T17:44:19.206Z,8.07
2022-10-23T17:47:21.467Z,9.57
2022-10-23T17:50:24.078Z,10.48
2022-10-23T17:53:26.371Z,10.30
2022-10-23T17:56:31.118Z,11.77
2022-10-23T17:59:33.343Z,9.53
2022-10-23T18:02:35.963Z,10.25
2022-10-23T18:08:43.319Z,11.80
2022-10-23T18:11:48.134Z,10.13
2022-10-23T18:14:50.778Z,9.53
2022-10-23T18:17:56.150Z,9.95
2022-10-23T18:20:59.403Z,9.85
2022-10-23T18:24:02.489Z,9.02
2022-10-23T18:27:04.747Z,11.52
2022-10-23T18:30:07.914Z,10.57
2022-10-23T18:33:10.159Z,11.98
2022-10-23T18:36:22.757Z,11.68
2022-10-23T18:39:25.890Z,11.57
2022-10-23T18:42:28.434Z,12.75
2022-10-23T18:45:31.676Z,11.70
2022-10-23T18:48:35.314Z,10.50
2022-10-23T18:51:38.130Z,11.07
2022-10-23T18:54:40.590Z,9.32
2022-10-23T18:57:43.232Z,10.07
2022-10-23T19:00:46.733Z,11.47
2022-10-23T19:03:49.926Z,14.02
2022-10-23T19:06:52.616Z,13.23
2022-10-23T19:09:55.595Z,11.98
2022-10-23T19:12:58.110Z,15.18
2022-10-23T19:16:00.539Z,12.30
2022-10-23T19:19:25.368Z,12.48
2022-10-23T19:22:30.568Z,13.27
2022-10-23T19:25:35.446Z,13.45
2022-10-23T19:28:44.408Z,12.32
2022-10-23T19:31:49.377Z,14.20
2022-10-23T19:34:51.815Z,13.85
2022-10-23T19:37:54.518Z,13.20
2022-10-23T19:40:57.039Z,13.90
2022-10-23T19:43:59.893Z,13.15
2022-10-23T19:47:03.439Z,14.27
2022-10-23T19:50:07.915Z,13.50
2022-10-23T19:53:10.526Z,15.32
2022-10-23T19:56:13.138Z,17.45
2022-10-23T19:59:15.753Z,15.38
2022-10-23T20:02:20.078Z,14.67
2022-10-23T20:05:22.881Z,18.40
2022-10-23T20:08:25.114Z,15.48
2022-10-23T20:11:30.129Z,15.05
2022-10-23T20:14:32.969Z,15.95
2022-10-23T20:17:35.901Z,14.67
2022-10-23T20:20:42.141Z,14.32
2022-10-23T20:23:45.558Z,14.32
2022-10-23T20:26:50.454Z,14.43
2022-10-23T20:29:52.951Z,13.38
2022-10-23T20:32:55.661Z,13.80
2022-10-23T20:35:58.214Z,14.55
2022-10-23T20:39:09.220Z,14.23
2022-10-23T20:42:11.906Z,14.68
2022-10-23T20:45:14.242Z,14.13
2022-10-23T20:48:16.864Z,16.07
2022-10-23T20:51:21.322Z,15.60
2022-10-23T20:54:26.922Z,15.75
2022-10-23T20:57:29.280Z,17.37
2022-10-23T21:00:32.104Z,17.35
2022-10-23T21:03:34.686Z,16.57
2022-10-23T21:06:46.098Z,16.55
2022-10-23T21:09:59.494Z,17.95
2022-10-23T21:13:02.159Z,15.85
2022-10-23T21:16:17.375Z,18.33
2022-10-23T21:19:19.982Z,17.10
2022-10-23T21:22:22.245Z,17.20
2022-10-23T21:25:24.783Z,15.18
2022-10-23T21:28:27.052Z,15.80
2022-10-23T21:31:29.604Z,15.95
2022-10-23T21:34:31.909Z,17.80
2022-10-23T21:37:34.552Z,16.67
2022-10-23T21:40:36.789Z,16.55
2022-10-23T21:43:39.459Z,16.20
2022-10-23T21:46:41.898Z,16.37
2022-10-23T21:49:44.791Z,17.00
2022-10-23T21:52:52.061Z,16.80
2022-10-23T21:55:56.180Z,15.98
2022-10-23T21:59:00.778Z,16.75
2022-10-23T22:02:04.297Z,14.15
2022-10-23T22:05:10.366Z,18.13
2022-10-23T22:08:12.870Z,17.83
2022-10-23T22:11:16.262Z,16.20
2022-10-23T22:14:19.190Z,16.40
2022-10-23T22:17:21.755Z,16.00
2022-10-23T22:20:24.053Z,16.30
2022-10-23T22:23:26.887Z,16.85
2022-10-23T22:26:31.291Z,15.13
2022-10-23T22:29:34.104Z,15.82
2022-10-23T22:32:36.322Z,17.50
2022-10-23T22:35:39.293Z,15.93
2022-10-23T22:38:42.173Z,19.33
2022-10-23T22:41:44.702Z,15.40
2022-10-23T22:44:47.058Z,19.62
2022-10-23T22:47:49.552Z,18.80
2022-10-23T22:50:51.864Z,20.50
2022-10-23T22:53:55.234Z,19.58
2022-10-23T22:56:57.952Z,18.52
2022-10-23T23:00:00.954Z,21.33
2022-10-23T23:03:03.287Z,19.17
2022-10-23T23:06:08.823Z,19.33
2022-10-23T23:09:14.159Z,19.08
2022-10-23T23:12:20.268Z,22.80
2022-10-23T23:15:22.666Z,20.42
2022-10-23T23:18:25.591Z,21.80
2022-10-23T23:21:29.290Z,24.33
2022-10-23T23:24:32.196Z,22.90
2022-10-23T23:27:34.475Z,25.70
2022-10-23T23:30:37.097Z,20.85
2022-10-23T23:33:39.388Z,23.73
2022-10-23T23:36:42.026Z,24.40
2022-10-23T23:39:44.252Z,23.87
2022-10-23T23:42:47.173Z,22.40
2022-10-23T23:45:49.526Z,21.58
2022-10-23T23:48:52.139Z,24.70
2022-10-23T23:51:54.366Z,23.07
2022-10-23T23:54:57.077Z,23.15
2022-10-23T23:57:59.291Z,22.77
